sensor_id;sensor_type;location;lat;lon;timestamp;pressure;altitude;pressure_sealevel;temperature;humidity
18795;BME280;29610;49.022;12.114;2023-02-01T00:01:49;98142.94;;;5.15;100.00
18795;BME280;29610;49.022;12.114;2023-02-01T00:04:18;98146.91;;;5.33;100.00
18795;BME280;29610;49.022;12.114;2023-02-01T00:06:46;98139.13;;;5.21;100.00
18795;BME280;29610;49.022;12.114;2023-02-01T00:09:15;98139.41;;;5.20;100.00
18795;BME280;29610;49.022;12.114;2023-02-01T00:11:45;98139.97;;;5.12;100.00
18795;BME280;29610;49.022;12.114;2023-02-01T00:14:14;98125.66;;;5.16;100.00
18795;BME280;29610;49.022;12.114;2023-02-01T00:16:43;98133.50;;;5.13;100.00
18795;BME280;29610;49.022;12.114;2023-02-01T00:19:14;98121.97;;;5.02;100.00
18795;BME280;29610;49.022;12.114;2023-02-01T00:21:43;98127.34;;;4.97;100.00
18795;BME280;29610;49.022;12.114;2023-02-01T00:24:12;98127.84;;;5.04;100.00
18795;BME280;29610;49.022;12.114;2023-02-01T00:26:43;98124.41;;;4.99;100.00
18795;BME280;29610;49.022;12.114;2023-02-01T00:29:17;98126.50;;;5.07;100.00
18795;BME280;29610;49.022;12.114;2023-02-01T00:31:46;98128.13;;;5.03;100.00
18795;BME280;29610;49.022;12.114;2023-02-01T00:34:19;98127.81;;;5.14;100.00
18795;BME280;29610;49.022;12.114;2023-02-01T00:36:48;98132.44;;;5.09;100.00
18795;BME280;29610;49.022;12.114;2023-02-01T00:39:17;98130.88;;;4.98;100.00
18795;BME280;29610;49.022;12.114;2023-02-01T00:41:45;98123.28;;;5.05;100.00
18795;BME280;29610;49.022;12.114;2023-02-01T00:44:16;98129.97;;;5.12;100.00
18795;BME280;29610;49.022;12.114;2023-02-01T00:46:44;98120.31;;;5.06;100.00
18795;BME280;29610;49.022;12.114;2023-02-01T00:49:13;98121.69;;;5.04;100.00
18795;BME280;29610;49.022;12.114;2023-02-01T00:51:42;98120.31;;;5.01;100.00
18795;BME280;29610;49.022;12.114;2023-02-01T00:54:10;98116.28;;;5.04;100.00
18795;BME280;29610;49.022;12.114;2023-02-01T00:56:39;98110.63;;;5.10;100.00
18795;BME280;29610;49.022;12.114;2023-02-01T00:59:10;98110.63;;;5.05;100.00
18795;BME280;29610;49.022;12.114;2023-02-01T01:01:40;98114.38;;;5.09;100.00
18795;BME280;29610;49.022;12.114;2023-02-01T01:04:09;98110.09;;;4.98;100.00
18795;BME280;29610;49.022;12.114;2023-02-01T01:06:37;98109.34;;;4.93;100.00
18795;BME280;29610;49.022;12.114;2023-02-01T01:09:07;98116.88;;;4.96;100.00
18795;BME280;29610;49.022;12.114;2023-02-01T01:11:38;98114.66;;;5.03;100.00
18795;BME280;29610;49.022;12.114;2023-02-01T01:14:09;98117.91;;;5.00;100.00
18795;BME280;29610;49.022;12.114;2023-02-01T01:16:38;98122.22;;;5.06;100.00
18795;BME280;29610;49.022;12.114;2023-02-01T01:19:07;98112.78;;;5.08;100.00
18795;BME280;29610;49.022;12.114;2023-02-01T01:21:36;98117.34;;;5.03;100.00
18795;BME280;29610;49.022;12.114;2023-02-01T01:24:05;98121.44;;;4.90;100.00
18795;BME280;29610;49.022;12.114;2023-02-01T01:26:34;98115.78;;;4.92;100.00
18795;BME280;29610;49.022;12.114;2023-02-01T01:29:03;98113.06;;;5.02;100.00
18795;BME280;29610;49.022;12.114;2023-02-01T01:31:32;98114.72;;;4.98;100.00
18795;BME280;29610;49.022;12.114;2023-02-01T01:34:01;98117.91;;;5.05;100.00
18795;BME280;29610;49.022;12.114;2023-02-01T01:36:31;98110.63;;;5.05;100.00
18795;BME280;29610;49.022;12.114;2023-02-01T01:39:00;98114.38;;;5.09;100.00
18795;BME280;29610;49.022;12.114;2023-02-01T01:41:31;98106.06;;;5.01;100.00
18795;BME280;29610;49.022;12.114;2023-02-01T01:44:56;98107.41;;;4.98;100.00
18795;BME280;29610;49.022;12.114;2023-02-01T01:47:30;98097.91;;;5.16;100.00
18795;BME280;29610;49.022;12.114;2023-02-01T01:50:01;98101.44;;;5.11;100.00
18795;BME280;29610;49.022;12.114;2023-02-01T01:52:32;98093.06;;;5.13;100.00
18795;BME280;29610;49.022;12.114;2023-02-01T01:55:02;98087.94;;;5.16;100.00
18795;BME280;29610;49.022;12.114;2023-02-01T01:57:36;98087.50;;;4.99;100.00
18795;BME280;29610;49.022;12.114;2023-02-01T02:00:10;98085.56;;;5.05;100.00
18795;BME280;29610;49.022;12.114;2023-02-01T02:02:44;98079.91;;;5.06;100.00
18795;BME280;29610;49.022;12.114;2023-02-01T02:05:17;98081.84;;;5.01;100.00
18795;BME280;29610;49.022;12.114;2023-02-01T02:07:51;98080.44;;;5.13;100.00
18795;BME280;29610;49.022;12.114;2023-02-01T02:10:24;98082.81;;;5.20;100.00
18795;BME280;29610;49.022;12.114;2023-02-01T02:13:14;98078.19;;;5.25;100.00
18795;BME280;29610;49.022;12.114;2023-02-01T02:15:56;98080.34;;;5.28;100.00
18795;BME280;29610;49.022;12.114;2023-02-01T02:18:40;98078.44;;;5.34;100.00
18795;BME280;29610;49.022;12.114;2023-02-01T02:21:31;98071.66;;;5.36;100.00
18795;BME280;29610;49.022;12.114;2023-02-01T02:24:38;98062.28;;;5.29;100.00
18795;BME280;29610;49.022;12.114;2023-02-01T02:27:38;98068.97;;;5.36;100.00
18795;BME280;29610;49.022;12.114;2023-02-01T02:30:41;98072.56;;;5.22;100.00
18795;BME280;29610;49.022;12.114;2023-02-01T02:33:52;98060.38;;;5.34;100.00
18795;BME280;29610;49.022;12.114;2023-02-01T02:36:42;98060.66;;;5.33;100.00
18795;BME280;29610;49.022;12.114;2023-02-01T02:39:27;98067.50;;;5.15;100.00
18795;BME280;29610;49.022;12.114;2023-02-01T02:42:09;98064.97;;;5.29;100.00
18795;BME280;29610;49.022;12.114;2023-02-01T02:45:06;98057.41;;;5.36;100.00
18795;BME280;29610;49.022;12.114;2023-02-01T02:48:02;98061.41;;;5.38;100.00
18795;BME280;29610;49.022;12.114;2023-02-01T02:50:37;98057.38;;;5.41;100.00
18795;BME280;29610;49.022;12.114;2023-02-01T02:53:30;98056.56;;;5.40;100.00
18795;BME280;29610;49.022;12.114;2023-02-01T02:56:20;98057.69;;;5.34;100.00
18795;BME280;29610;49.022;12.114;2023-02-01T02:59:12;98062.81;;;5.31;100.00
18795;BME280;29610;49.022;12.114;2023-02-01T03:02:00;98052.00;;;5.36;100.00
18795;BME280;29610;49.022;12.114;2023-02-01T03:04:46;98050.41;;;5.30;100.00
18795;BME280;29610;49.022;12.114;2023-02-01T03:07:59;98053.63;;;5.32;100.00
18795;BME280;29610;49.022;12.114;2023-02-01T03:10:44;98056.00;;;5.43;100.00
18795;BME280;29610;49.022;12.114;2023-02-01T03:13:26;98045.75;;;5.45;100.00
18795;BME280;29610;49.022;12.114;2023-02-01T03:16:01;98050.59;;;5.48;100.00
18795;BME280;29610;49.022;12.114;2023-02-01T03:18:39;98050.38;;;5.35;100.00
18795;BME280;29610;49.022;12.114;2023-02-01T03:21:16;98046.13;;;5.29;100.00
18795;BME280;29610;49.022;12.114;2023-02-01T03:23:50;98040.94;;;5.37;100.00
18795;BME280;29610;49.022;12.114;2023-02-01T03:26:24;98043.38;;;5.39;100.00
18795;BME280;29610;49.022;12.114;2023-02-01T03:29:07;98048.06;;;5.23;100.00
18795;BME280;29610;49.022;12.114;2023-02-01T03:31:37;98040.16;;;5.32;100.00
18795;BME280;29610;49.022;12.114;2023-02-01T03:34:06;98029.06;;;5.38;100.00
18795;BME280;29610;49.022;12.114;2023-02-01T03:36:43;98034.97;;;5.45;100.00
18795;BME280;29610;49.022;12.114;2023-02-01T03:39:22;98029.31;;;5.47;100.00
18795;BME280;29610;49.022;12.114;2023-02-01T03:41:56;98018.25;;;5.43;100.00
18795;BME280;29610;49.022;12.114;2023-02-01T03:44:31;98016.16;;;5.35;100.00
18795;BME280;29610;49.022;12.114;2023-02-01T03:47:06;98013.41;;;5.45;100.00
18795;BME280;29610;49.022;12.114;2023-02-01T03:49:41;98006.41;;;5.39;100.00
18795;BME280;29610;49.022;12.114;2023-02-01T03:52:14;98002.91;;;5.44;100.00
18795;BME280;29610;49.022;12.114;2023-02-01T03:54:47;97999.63;;;5.52;100.00
18795;BME280;29610;49.022;12.114;2023-02-01T03:57:25;98003.66;;;5.49;100.00
18795;BME280;29610;49.022;12.114;2023-02-01T04:00:05;98002.94;;;5.39;100.00
18795;BME280;29610;49.022;12.114;2023-02-01T04:02:40;98008.88;;;5.41;100.00
18795;BME280;29610;49.022;12.114;2023-02-01T04:05:09;98015.31;;;5.40;100.00
18795;BME280;29610;49.022;12.114;2023-02-01T04:07:43;98018.03;;;5.35;100.00
18795;BME280;29610;49.022;12.114;2023-02-01T04:10:13;98006.69;;;5.38;100.00
18795;BME280;29610;49.022;12.114;2023-02-01T04:12:45;98015.31;;;5.40;100.00
18795;BME280;29610;49.022;12.114;2023-02-01T04:15:14;98008.63;;;5.37;100.00
18795;BME280;29610;49.022;12.114;2023-02-01T04:17:43;98012.91;;;5.38;100.00
18795;BME280;29610;49.022;12.114;2023-02-01T04:20:12;98007.75;;;5.47;100.00
18795;BME280;29610;49.022;12.114;2023-02-01T04:22:40;98014.84;;;5.33;100.00
18795;BME280;29610;49.022;12.114;2023-02-01T04:25:09;98006.91;;;5.46;100.00
18795;BME280;29610;49.022;12.114;2023-02-01T04:27:39;98006.34;;;5.49;100.00
18795;BME280;29610;49.022;12.114;2023-02-01T04:30:09;97998.59;;;5.43;100.00
18795;BME280;29610;49.022;12.114;2023-02-01T04:32:39;98012.34;;;5.41;100.00
18795;BME280;29610;49.022;12.114;2023-02-01T04:35:09;98008.63;;;5.37;100.00
18795;BME280;29610;49.022;12.114;2023-02-01T04:37:39;98011.06;;;5.34;100.00
18795;BME280;29610;49.022;12.114;2023-02-01T04:40:09;97999.69;;;5.42;100.00
18795;BME280;29610;49.022;12.114;2023-02-01T04:42:39;97998.34;;;5.39;100.00
18795;BME280;29610;49.022;12.114;2023-02-01T04:45:09;97984.03;;;5.44;100.00
18795;BME280;29610;49.022;12.114;2023-02-01T04:47:37;97979.63;;;5.58;100.00
18795;BME280;29610;49.022;12.114;2023-02-01T04:50:07;97978.88;;;5.47;100.00
18795;BME280;29610;49.022;12.114;2023-02-01T04:52:37;97973.97;;;5.54;100.00
18795;BME280;29610;49.022;12.114;2023-02-01T04:55:07;97968.91;;;5.48;100.00
18795;BME280;29610;49.022;12.114;2023-02-01T04:57:36;97964.06;;;5.45;100.00
18795;BME280;29610;49.022;12.114;2023-02-01T05:00:10;97968.59;;;5.54;100.00
18795;BME280;29610;49.022;12.114;2023-02-01T05:02:38;97971.19;;;5.64;100.00
18795;BME280;29610;49.022;12.114;2023-02-01T05:05:08;97962.88;;;5.61;100.00
18795;BME280;29610;49.022;12.114;2023-02-01T05:07:37;97960.59;;;5.73;100.00
18795;BME280;29610;49.022;12.114;2023-02-01T05:10:07;97952.75;;;5.76;100.00
18795;BME280;29610;49.022;12.114;2023-02-01T05:12:36;97970.06;;;5.70;100.00
18795;BME280;29610;49.022;12.114;2023-02-01T05:15:23;97965.81;;;5.64;100.00
18795;BME280;29610;49.022;12.114;2023-02-01T05:17:52;97951.44;;;5.74;100.00
18795;BME280;29610;49.022;12.114;2023-02-01T05:20:21;97957.56;;;5.79;100.00
18795;BME280;29610;49.022;12.114;2023-02-01T05:22:50;97955.81;;;5.65;100.00
18795;BME280;29610;49.022;12.114;2023-02-01T05:25:18;97964.50;;;5.57;100.00
18795;BME280;29610;49.022;12.114;2023-02-01T05:27:47;97965.78;;;5.69;100.00
18795;BME280;29610;49.022;12.114;2023-02-01T05:30:16;97961.94;;;5.75;100.00
18795;BME280;29610;49.022;12.114;2023-02-01T05:32:50;97950.06;;;5.76;100.00
18795;BME280;29610;49.022;12.114;2023-02-01T05:35:19;97933.28;;;5.79;100.00
18795;BME280;29610;49.022;12.114;2023-02-01T05:37:48;97938.81;;;5.69;100.00
18795;BME280;29610;49.022;12.114;2023-02-01T05:40:17;97935.50;;;5.77;100.00
18795;BME280;29610;49.022;12.114;2023-02-01T05:42:46;97935.81;;;5.71;100.00
18795;BME280;29610;49.022;12.114;2023-02-01T05:45:14;97931.63;;;5.88;100.00
18795;BME280;29610;49.022;12.114;2023-02-01T05:47:43;97945.22;;;5.73;100.00
18795;BME280;29610;49.022;12.114;2023-02-01T05:50:13;97928.75;;;5.75;100.00
18795;BME280;29610;49.022;12.114;2023-02-01T05:52:42;97923.03;;;5.86;100.00
18795;BME280;29610;49.022;12.114;2023-02-01T05:55:11;97916.28;;;5.84;100.00
18795;BME280;29610;49.022;12.114;2023-02-01T05:57:39;97926.31;;;5.78;100.00
18795;BME280;29610;49.022;12.114;2023-02-01T06:00:10;97917.88;;;5.90;100.00
18795;BME280;29610;49.022;12.114;2023-02-01T06:02:39;97907.53;;;5.97;100.00
18795;BME280;29610;49.022;12.114;2023-02-01T06:05:08;97912.53;;;5.80;100.00
18795;BME280;29610;49.022;12.114;2023-02-01T06:07:38;97914.25;;;5.71;100.00
18795;BME280;29610;49.022;12.114;2023-02-01T06:10:09;97913.53;;;5.60;100.00
18795;BME280;29610;49.022;12.114;2023-02-01T06:12:38;97911.94;;;5.59;100.00
18795;BME280;29610;49.022;12.114;2023-02-01T06:15:08;97914.94;;;5.53;100.00
18795;BME280;29610;49.022;12.114;2023-02-01T06:17:37;97910.59;;;5.57;100.00
18795;BME280;29610;49.022;12.114;2023-02-01T06:20:08;97916.41;;;5.40;100.00
18795;BME280;29610;49.022;12.114;2023-02-01T06:22:40;97911.56;;;5.42;100.00
18795;BME280;29610;49.022;12.114;2023-02-01T06:25:10;97912.16;;;5.34;100.00
18795;BME280;29610;49.022;12.114;2023-02-01T06:27:39;97911.84;;;5.41;100.00
18795;BME280;29610;49.022;12.114;2023-02-01T06:30:09;97915.75;;;5.53;100.00
18795;BME280;29610;49.022;12.114;2023-02-01T06:32:38;97914.09;;;5.57;100.00
18795;BME280;29610;49.022;12.114;2023-02-01T06:35:08;97914.94;;;5.53;100.00
18795;BME280;29610;49.022;12.114;2023-02-01T06:37:39;97918.47;;;5.53;100.00
18795;BME280;29610;49.022;12.114;2023-02-01T06:40:10;97904.97;;;5.53;100.00
18795;BME280;29610;49.022;12.114;2023-02-01T06:42:38;97906.09;;;5.47;100.00
18795;BME280;29610;49.022;12.114;2023-02-01T06:45:08;97911.88;;;5.36;100.00
18795;BME280;29610;49.022;12.114;2023-02-01T06:47:37;97916.69;;;5.39;100.00
18795;BME280;29610;49.022;12.114;2023-02-01T06:50:07;97918.28;;;5.40;100.00
18795;BME280;29610;49.022;12.114;2023-02-01T06:52:36;97916.50;;;5.30;100.00
18795;BME280;29610;49.022;12.114;2023-02-01T06:55:07;97910.63;;;5.23;100.00
18795;BME280;29610;49.022;12.114;2023-02-01T06:57:35;97916.16;;;5.37;100.00
18795;BME280;29610;49.022;12.114;2023-02-01T07:00:06;97905.88;;;5.44;100.00
18795;BME280;29610;49.022;12.114;2023-02-01T07:02:34;97914.78;;;5.39;100.00
18795;BME280;29610;49.022;12.114;2023-02-01T07:05:03;97914.56;;;5.36;100.00
18795;BME280;29610;49.022;12.114;2023-02-01T07:07:32;97914.97;;;5.19;100.00
18795;BME280;29610;49.022;12.114;2023-02-01T07:10:00;97920.66;;;5.13;100.00
18795;BME280;29610;49.022;12.114;2023-02-01T07:12:30;97935.22;;;5.12;100.00
18795;BME280;29610;49.022;12.114;2023-02-01T07:14:59;97937.94;;;5.12;100.00
18795;BME280;29610;49.022;12.114;2023-02-01T07:17:28;97949.22;;;5.14;100.00
18795;BME280;29610;49.022;12.114;2023-02-01T07:19:57;97954.16;;;4.97;100.00
18795;BME280;29610;49.022;12.114;2023-02-01T07:22:27;97954.16;;;4.97;100.00
18795;BME280;29610;49.022;12.114;2023-02-01T07:24:56;97951.22;;;4.93;100.00
18795;BME280;29610;49.022;12.114;2023-02-01T07:27:24;97966.06;;;4.91;100.00
18795;BME280;29610;49.022;12.114;2023-02-01T07:29:55;97968.31;;;4.79;100.00
18795;BME280;29610;49.022;12.114;2023-02-01T07:32:24;97988.38;;;4.37;100.00
18795;BME280;29610;49.022;12.114;2023-02-01T07:34:52;97988.19;;;4.14;100.00
18795;BME280;29610;49.022;12.114;2023-02-01T07:37:21;97990.38;;;3.72;100.00
18795;BME280;29610;49.022;12.114;2023-02-01T07:39:51;97975.34;;;3.71;100.00
18795;BME280;29610;49.022;12.114;2023-02-01T07:42:20;97979.13;;;3.75;100.00
18795;BME280;29610;49.022;12.114;2023-02-01T07:44:49;97982.84;;;3.89;100.00
18795;BME280;29610;49.022;12.114;2023-02-01T07:47:22;97971.28;;;3.93;100.00
18795;BME280;29610;49.022;12.114;2023-02-01T07:49:52;97964.25;;;4.12;100.00
18795;BME280;29610;49.022;12.114;2023-02-01T07:52:23;97959.03;;;4.36;100.00
18795;BME280;29610;49.022;12.114;2023-02-01T07:54:52;97959.28;;;4.44;100.00
18795;BME280;29610;49.022;12.114;2023-02-01T07:57:23;97966.84;;;4.42;100.00
18795;BME280;29610;49.022;12.114;2023-02-01T07:59:52;97966.75;;;4.63;100.00
18795;BME280;29610;49.022;12.114;2023-02-01T08:02:42;97960.53;;;4.72;100.00
18795;BME280;29610;49.022;12.114;2023-02-01T08:05:11;97962.84;;;4.89;100.00
18795;BME280;29610;49.022;12.114;2023-02-01T08:07:40;97953.97;;;4.88;100.00
18795;BME280;29610;49.022;12.114;2023-02-01T08:10:09;97953.38;;;4.96;100.00
18795;BME280;29610;49.022;12.114;2023-02-01T08:12:38;97953.34;;;5.01;100.00
18795;BME280;29610;49.022;12.114;2023-02-01T08:15:09;97959.53;;;5.02;100.00
18795;BME280;29610;49.022;12.114;2023-02-01T08:17:38;97966.75;;;5.11;100.00
18795;BME280;29610;49.022;12.114;2023-02-01T08:20:10;97963.78;;;5.08;100.00
18795;BME280;29610;49.022;12.114;2023-02-01T08:22:41;97969.22;;;5.03;100.00
18795;BME280;29610;49.022;12.114;2023-02-01T08:25:12;97965.72;;;5.02;100.00
18795;BME280;29610;49.022;12.114;2023-02-01T08:27:42;97961.00;;;5.23;100.00
18795;BME280;29610;49.022;12.114;2023-02-01T08:30:12;97968.50;;;5.31;100.00
18795;BME280;29610;49.022;12.114;2023-02-01T08:32:41;97976.31;;;5.32;100.00
18795;BME280;29610;49.022;12.114;2023-02-01T08:35:12;97959.22;;;5.47;100.00
18795;BME280;29610;49.022;12.114;2023-02-01T08:37:43;97959.88;;;5.62;100.00
18795;BME280;29610;49.022;12.114;2023-02-01T08:40:12;97947.41;;;5.71;100.00
18795;BME280;29610;49.022;12.114;2023-02-01T08:42:41;97942.00;;;5.71;100.00
18795;BME280;29610;49.022;12.114;2023-02-01T08:45:21;97948.75;;;5.74;100.00
18795;BME280;29610;49.022;12.114;2023-02-01T08:47:51;97946.78;;;5.79;100.00
18795;BME280;29610;49.022;12.114;2023-02-01T08:50:23;97947.41;;;6.00;100.00
18795;BME280;29610;49.022;12.114;2023-02-01T08:52:53;97947.34;;;5.76;100.00
18795;BME280;29610;49.022;12.114;2023-02-01T08:55:21;97964.34;;;5.77;100.00
18795;BME280;29610;49.022;12.114;2023-02-01T08:57:50;97949.53;;;5.74;100.00
18795;BME280;29610;49.022;12.114;2023-02-01T09:00:19;97945.28;;;5.68;100.00
18795;BME280;29610;49.022;12.114;2023-02-01T09:02:48;97940.97;;;5.67;100.00
18795;BME280;29610;49.022;12.114;2023-02-01T09:05:17;97944.59;;;5.86;100.00
18795;BME280;29610;49.022;12.114;2023-02-01T09:07:50;97937.59;;;5.85;100.00
18795;BME280;29610;49.022;12.114;2023-02-01T09:10:19;97942.53;;;6.02;100.00
18795;BME280;29610;49.022;12.114;2023-02-01T09:13:01;97937.72;;;5.99;100.00
18795;BME280;29610;49.022;12.114;2023-02-01T09:15:31;97931.41;;;5.85;100.00
18795;BME280;29610;49.022;12.114;2023-02-01T09:18:00;97938.06;;;5.92;100.00
18795;BME280;29610;49.022;12.114;2023-02-01T09:20:28;97945.59;;;6.19;100.00
18795;BME280;29610;49.022;12.114;2023-02-01T09:22:58;97965.47;;;6.05;100.00
18795;BME280;29610;49.022;12.114;2023-02-01T09:25:27;97960.75;;;6.15;100.00
18795;BME280;29610;49.022;12.114;2023-02-01T09:27:55;97963.34;;;6.25;100.00
18795;BME280;29610;49.022;12.114;2023-02-01T09:30:24;97976.00;;;6.01;100.00
18795;BME280;29610;49.022;12.114;2023-02-01T09:32:54;97968.31;;;6.13;100.00
18795;BME280;29610;49.022;12.114;2023-02-01T09:35:22;97972.38;;;6.16;100.00
18795;BME280;29610;49.022;12.114;2023-02-01T09:37:52;97972.84;;;6.18;100.00
18795;BME280;29610;49.022;12.114;2023-02-01T09:40:23;97978.34;;;6.13;100.00
18795;BME280;29610;49.022;12.114;2023-02-01T09:43:10;97974.94;;;6.26;100.00
18795;BME280;29610;49.022;12.114;2023-02-01T09:45:51;97967.13;;;6.24;100.00
18795;BME280;29610;49.022;12.114;2023-02-01T09:48:29;97972.06;;;6.17;100.00
18795;BME280;29610;49.022;12.114;2023-02-01T09:51:02;97978.84;;;6.15;100.00
18795;BME280;29610;49.022;12.114;2023-02-01T09:53:37;97989.13;;;6.13;100.00
18795;BME280;29610;49.022;12.114;2023-02-01T09:56:14;97974.31;;;6.10;100.00
18795;BME280;29610;49.022;12.114;2023-02-01T09:58:56;97986.97;;;6.10;100.00
18795;BME280;29610;49.022;12.114;2023-02-01T10:01:27;97980.88;;;5.99;100.00
18795;BME280;29610;49.022;12.114;2023-02-01T10:04:03;97980.75;;;6.14;100.00
18795;BME280;29610;49.022;12.114;2023-02-01T10:06:53;97981.28;;;6.11;100.00
18795;BME280;29610;49.022;12.114;2023-02-01T10:09:58;97983.88;;;5.97;100.00
18795;BME280;29610;49.022;12.114;2023-02-01T10:13:04;97981.50;;;5.91;100.00
18795;BME280;29610;49.022;12.114;2023-02-01T10:15:58;97980.25;;;6.07;100.00
18795;BME280;29610;49.022;12.114;2023-02-01T10:19:21;97979.25;;;6.03;100.00
18795;BME280;29610;49.022;12.114;2023-02-01T10:21:59;97976.97;;;5.81;100.00
18795;BME280;29610;49.022;12.114;2023-02-01T10:24:39;97976.59;;;5.98;100.00
18795;BME280;29610;49.022;12.114;2023-02-01T10:27:19;97980.75;;;5.85;100.00
18795;BME280;29610;49.022;12.114;2023-02-01T10:29:57;97978.53;;;5.92;100.00
18795;BME280;29610;49.022;12.114;2023-02-01T10:32:31;97969.06;;;5.95;100.00
18795;BME280;29610;49.022;12.114;2023-02-01T10:35:12;97967.41;;;5.99;100.00
18795;BME280;29610;49.022;12.114;2023-02-01T10:37:43;97961.38;;;6.07;100.00
18795;BME280;29610;49.022;12.114;2023-02-01T10:40:18;97966.88;;;5.97;100.00
18795;BME280;29610;49.022;12.114;2023-02-01T10:42:51;97965.28;;;6.20;100.00
18795;BME280;29610;49.022;12.114;2023-02-01T10:45:26;97958.63;;;6.36;100.00
18795;BME280;29610;49.022;12.114;2023-02-01T10:47:58;97957.94;;;6.49;100.00
18795;BME280;29610;49.022;12.114;2023-02-01T10:50:35;97949.63;;;6.64;100.00
18795;BME280;29610;49.022;12.114;2023-02-01T10:53:13;97955.56;;;6.66;100.00
18795;BME280;29610;49.022;12.114;2023-02-01T10:55:50;97983.91;;;6.45;100.00
18795;BME280;29610;49.022;12.114;2023-02-01T10:58:26;98001.84;;;6.07;100.00
18795;BME280;29610;49.022;12.114;2023-02-01T11:01:00;98007.81;;;5.70;100.00
18795;BME280;29610;49.022;12.114;2023-02-01T11:03:40;98003.28;;;5.66;100.00
18795;BME280;29610;49.022;12.114;2023-02-01T11:06:19;98005.22;;;5.55;100.00
18795;BME280;29610;49.022;12.114;2023-02-01T11:08:53;98022.28;;;5.46;100.00
18795;BME280;29610;49.022;12.114;2023-02-01T11:11:23;98010.28;;;5.28;100.00
18795;BME280;29610;49.022;12.114;2023-02-01T11:13:55;98016.69;;;5.37;100.00
18795;BME280;29610;49.022;12.114;2023-02-01T11:16:34;98017.97;;;5.45;100.00
18795;BME280;29610;49.022;12.114;2023-02-01T11:19:05;98007.91;;;5.94;100.00
18795;BME280;29610;49.022;12.114;2023-02-01T11:21:34;98012.50;;;6.22;100.00
18795;BME280;29610;49.022;12.114;2023-02-01T11:24:19;98007.34;;;6.49;100.00
18795;BME280;29610;49.022;12.114;2023-02-01T11:26:51;97995.63;;;6.59;100.00
18795;BME280;29610;49.022;12.114;2023-02-01T11:29:25;97986.91;;;6.85;100.00
18795;BME280;29610;49.022;12.114;2023-02-01T11:31:59;97974.94;;;6.91;100.00
18795;BME280;29610;49.022;12.114;2023-02-01T11:34:35;97979.91;;;7.21;100.00
18795;BME280;29610;49.022;12.114;2023-02-01T11:37:15;97969.09;;;7.59;100.00
18795;BME280;29610;49.022;12.114;2023-02-01T11:39:55;97971.72;;;7.64;100.00
18795;BME280;29610;49.022;12.114;2023-02-01T11:42:26;97964.31;;;7.69;100.00
18795;BME280;29610;49.022;12.114;2023-02-01T11:45:20;97961.88;;;7.54;100.00
18795;BME280;29610;49.022;12.114;2023-02-01T11:47:53;97958.66;;;7.15;100.00
18795;BME280;29610;49.022;12.114;2023-02-01T11:50:32;97942.97;;;7.17;100.00
18795;BME280;29610;49.022;12.114;2023-02-01T11:53:20;97945.94;;;7.34;100.00
18795;BME280;29610;49.022;12.114;2023-02-01T11:56:09;97930.38;;;7.44;100.00
18795;BME280;29610;49.022;12.114;2023-02-01T11:59:12;97920.53;;;7.35;100.00
18795;BME280;29610;49.022;12.114;2023-02-01T12:02:08;97925.78;;;7.45;100.00
18795;BME280;29610;49.022;12.114;2023-02-01T12:05:14;97919.13;;;7.70;100.00
18795;BME280;29610;49.022;12.114;2023-02-01T12:08:04;97924.63;;;8.10;100.00
18795;BME280;29610;49.022;12.114;2023-02-01T12:10:51;97915.28;;;8.16;100.00
18795;BME280;29610;49.022;12.114;2023-02-01T12:13:41;97922.06;;;8.32;100.00
18795;BME280;29610;49.022;12.114;2023-02-01T12:16:28;97920.41;;;8.72;100.00
18795;BME280;29610;49.022;12.114;2023-02-01T12:19:27;97911.72;;;8.97;100.00
18795;BME280;29610;49.022;12.114;2023-02-01T12:22:18;97908.03;;;8.93;100.00
18795;BME280;29610;49.022;12.114;2023-02-01T12:25:16;97911.38;;;8.76;100.00
18795;BME280;29610;49.022;12.114;2023-02-01T12:28:20;97907.78;;;8.67;100.00
18795;BME280;29610;49.022;12.114;2023-02-01T12:31:12;97912.91;;;8.55;100.00
18795;BME280;29610;49.022;12.114;2023-02-01T12:34:05;97907.31;;;8.52;100.00
18795;BME280;29610;49.022;12.114;2023-02-01T12:36:46;97914.53;;;8.56;100.00
18795;BME280;29610;49.022;12.114;2023-02-01T12:39:28;97910.13;;;8.47;100.00
18795;BME280;29610;49.022;12.114;2023-02-01T12:42:09;97918.44;;;8.37;100.00
18795;BME280;29610;49.022;12.114;2023-02-01T12:44:48;97913.97;;;8.14;100.00
18795;BME280;29610;49.022;12.114;2023-02-01T12:47:27;97900.25;;;8.10;100.00
18795;BME280;29610;49.022;12.114;2023-02-01T12:50:03;97905.88;;;8.41;100.00
18795;BME280;29610;49.022;12.114;2023-02-01T12:52:40;97890.84;;;8.21;100.00
18795;BME280;29610;49.022;12.114;2023-02-01T12:55:20;97905.38;;;8.25;100.00
18795;BME280;29610;49.022;12.114;2023-02-01T12:57:55;97916.59;;;8.19;100.00
18795;BME280;29610;49.022;12.114;2023-02-01T13:00:32;97916.19;;;8.12;100.00
18795;BME280;29610;49.022;12.114;2023-02-01T13:03:17;97928.88;;;7.71;100.00
18795;BME280;29610;49.022;12.114;2023-02-01T13:06:00;97931.34;;;7.16;100.00
18795;BME280;29610;49.022;12.114;2023-02-01T13:08:42;97919.09;;;6.87;100.00
18795;BME280;29610;49.022;12.114;2023-02-01T13:11:20;97921.72;;;6.92;100.00
18795;BME280;29610;49.022;12.114;2023-02-01T13:14:01;97921.56;;;6.83;100.00
18795;BME280;29610;49.022;12.114;2023-02-01T13:16:35;97918.34;;;6.81;100.00
18795;BME280;29610;49.022;12.114;2023-02-01T13:19:17;97909.59;;;6.71;100.00
18795;BME280;29610;49.022;12.114;2023-02-01T13:21:53;97915.81;;;6.71;100.00
18795;BME280;29610;49.022;12.114;2023-02-01T13:24:36;97897.09;;;6.56;100.00
18795;BME280;29610;49.022;12.114;2023-02-01T13:27:11;97899.97;;;6.65;100.00
18795;BME280;29610;49.022;12.114;2023-02-01T13:29:50;97885.81;;;6.73;100.00
18795;BME280;29610;49.022;12.114;2023-02-01T13:32:51;97900.13;;;6.73;100.00